Time;durP1;ratioP1;P1;durP2;ratioP2;P2;SDS_P1;SDS_P2;PMS_P1;PMS_P2;Temp;Humidity;BMP_temperature;BMP_pressure;BME280_temperature;BME280_humidity;BME280_pressure;Samples;Min_cycle;Max_cycle;Signal;HPM_P1;HPM_P2
2023/10/25 06:04:32;;;;;;;22.38;11.77;;;6.90;99.90;;;;;;6189318;22;1350892;-90
2023/10/25 06:07:10;;;;;;;20.05;13.23;;;6.90;99.90;;;;;;6173588;23;20020;-93
2023/10/25 06:15:31;;;;;;;16.02;13.00;;;6.90;99.90;;;;;;6219756;23;20052;-94
2023/10/25 06:17:59;;;;;;;23.60;12.48;;;6.90;99.90;;;;;;6195702;23;20150;-89
2023/10/25 06:20:36;;;;;;;22.00;12.80;;;6.90;99.90;;;;;;6192830;23;20466;-88
2023/10/25 06:23:04;;;;;;;19.08;13.95;;;6.90;99.90;;;;;;6219692;23;20016;-87
2023/10/25 06:25:33;;;;;;;17.48;12.68;;;6.90;99.90;;;;;;6192391;23;20439;-88
2023/10/25 06:28:08;;;;;;;22.63;13.00;;;6.90;99.90;;;;;;6218538;23;20297;-90
2023/10/25 06:30:49;;;;;;;15.43;12.68;;;7.00;99.90;;;;;;6193918;23;20066;-92
2023/10/25 06:33:27;;;;;;;19.42;12.95;;;6.90;99.90;;;;;;6169697;23;20047;-88
2023/10/25 06:36:07;;;;;;;20.25;13.05;;;6.90;99.90;;;;;;6219680;23;20040;-93
2023/10/25 06:38:33;;;;;;;22.50;13.52;;;6.90;99.90;;;;;;6192820;23;20013;-89
2023/10/25 06:41:02;;;;;;;20.50;13.57;;;6.90;99.90;;;;;;6168964;23;20427;-92
2023/10/25 06:43:34;;;;;;;21.27;14.20;;;7.00;99.90;;;;;;6193578;23;20016;-94
2023/10/25 06:46:23;;;;;;;19.23;14.02;;;6.90;99.90;;;;;;6218139;23;20012;-94
2023/10/25 06:48:57;;;;;;;21.58;13.63;;;7.00;99.90;;;;;;6193625;23;20051;-92
2023/10/25 06:51:33;;;;;;;21.80;14.55;;;7.00;99.90;;;;;;6193879;23;20008;-94
2023/10/25 06:54:04;;;;;;;21.95;14.25;;;7.00;99.90;;;;;;6194606;23;20019;-95
2023/10/25 06:56:30;;;;;;;17.30;13.75;;;7.10;99.90;;;;;;6218634;23;20510;-92
2023/10/25 06:58:59;;;;;;;19.02;13.45;;;7.00;99.90;;;;;;6193362;23;20020;-94
2023/10/25 07:01:33;;;;;;;18.40;12.82;;;7.20;99.90;;;;;;6224562;23;20039;-92
2023/10/25 07:04:25;;;;;;;19.42;13.05;;;7.10;99.90;;;;;;6215344;23;20066;-93
2023/10/25 07:07:00;;;;;;;20.92;13.52;;;7.50;99.90;;;;;;6194591;23;20085;-92
2023/10/25 07:09:31;;;;;;;19.98;12.65;;;7.30;99.90;;;;;;6218155;23;20054;-93
2023/10/25 07:12:02;;;;;;;19.20;12.20;;;7.50;99.90;;;;;;6245550;23;20016;-93
2023/10/25 07:14:40;;;;;;;;;;;;;;;;;;;;;
2023/10/25 07:17:14;;;;;;;15.98;11.75;;;7.70;99.90;;;;;;6218808;23;20063;-93
2023/10/25 07:19:47;;;;;;;16.38;11.43;;;7.30;99.90;;;;;;6218428;23;20008;-91
2023/10/25 07:22:18;;;;;;;13.45;11.23;;;7.80;99.90;;;;;;6194555;23;20016;-91
2023/10/25 07:24:49;;;;;;;15.00;10.32;;;7.80;99.90;;;;;;6195516;23;20054;-92
2023/10/25 07:27:15;;;;;;;13.93;10.52;;;6.90;99.90;;;;;;6220808;23;20428;-94
2023/10/25 07:29:51;;;;;;;20.02;11.50;;;7.80;99.90;;;;;;6195523;23;20016;-95
2023/10/25 07:32:21;;;;;;;20.65;12.45;;;7.70;99.90;;;;;;6195470;23;20012;-95
2023/10/25 07:34:51;;;;;;;16.15;11.48;;;7.70;99.90;;;;;;6196239;23;20012;-94
2023/10/25 07:37:19;;;;;;;17.67;10.77;;;7.70;99.90;;;;;;6195635;23;20014;-94
2023/10/25 07:39:50;;;;;;;13.38;11.18;;;7.70;99.90;;;;;;6196874;23;20019;-96
2023/10/25 07:42:25;;;;;;;17.80;10.57;;;7.70;99.90;;;;;;6146665;23;20023;-95
2023/10/25 07:45:04;;;;;;;;;;;;;;;;;;;;;
2023/10/25 07:47:39;;;;;;;14.43;11.07;;;7.80;99.90;;;;;;6198100;23;20047;-96
2023/10/25 07:50:13;;;;;;;15.50;10.85;;;7.10;99.90;;;;;;6197531;23;20024;-96
2023/10/25 07:53:16;;;;;;;16.48;12.27;;;7.80;99.90;;;;;;6205795;23;20020;-95
2023/10/25 07:56:08;;;;;;;16.27;11.95;;;7.90;99.90;;;;;;6155203;23;20074;-94
2023/10/25 07:58:45;;;;;;;15.98;11.57;;;7.50;99.90;;;;;;6200945;23;20344;-95
2023/10/25 08:01:17;;;;;;;20.77;10.90;;;7.90;99.90;;;;;;6173406;23;20462;-96
2023/10/25 08:04:19;;;;;;;;;;;;;;;;;;;;;
2023/10/25 08:06:51;;;;;;;18.42;12.15;;;8.00;99.90;;;;;;6196604;23;20344;-96
2023/10/25 10:39:21;;;;;;;8.63;6.13;;;12.90;99.90;;;;;;4810675;27;10183551;-90
2023/10/25 10:42:00;;;;;;;6.97;5.53;;;13.40;99.90;;;;;;5097486;27;20091;-89
2023/10/25 10:44:50;;;;;;;9.77;5.40;;;12.20;99.90;;;;;;5134453;28;20048;-89
2023/10/25 10:51:39;;;;;;;8.02;5.45;;;11.90;99.90;;;;;;5152284;27;20045;-92
2023/10/25 10:54:47;;;;;;;7.30;5.85;;;12.30;99.90;;;;;;5133925;27;20057;-92
2023/10/25 10:58:41;;;;;;;9.68;7.55;;;12.90;99.90;;;;;;5114777;27;20541;-95
2023/10/25 14:09:00;;;;;;;8.38;6.72;;;10.70;99.90;;;;;;5762307;22;12057068;-86
2023/10/25 14:11:46;;;;;;;10.77;7.47;;;10.70;99.90;;;;;;6224617;22;20020;-94
2023/10/25 14:18:01;;;;;;;12.55;7.97;;;10.90;99.90;;;;;;6277444;22;20010;-95
2023/10/25 14:24:43;;;;;;;;;;;;;;;;;;;;;
2023/10/25 14:38:40;;;;;;;;;;;;;;;;;;;;;
2023/10/25 15:07:15;;;;;;;11.63;7.10;;;10.10;99.90;;;;;;5536346;22;15064201;-96
2023/10/25 15:09:58;;;;;;;9.95;6.90;;;10.60;99.90;;;;;;6072770;23;20024;-96
2023/10/25 15:12:47;;;;;;;;;;;;;;;;;;;;;
2023/10/25 15:15:29;;;;;;;;;;;;;;;;;;;;;
2023/10/25 15:18:33;;;;;;;;;;;;;;;;;;;;;
2023/10/25 15:21:06;;;;;;;9.73;7.85;;;10.60;99.90;;;;;;6197772;23;20025;-96
2023/10/25 15:23:49;;;;;;;9.07;6.25;;;10.60;99.90;;;;;;6125330;23;20479;-96
2023/10/25 16:44:37;;;;;;;9.45;7.22;;;10.10;99.90;;;;;;5536647;22;15109280;-96
2023/10/25 16:47:25;;;;;;;;;;;;;;;;;;;;;
2023/10/25 16:50:36;;;;;;;;;;;;;;;;;;;;;
2023/10/25 17:00:43;;;;;;;11.57;9.82;;;10.00;99.90;;;;;;6161673;23;20017;-91
2023/10/25 17:03:38;;;;;;;12.63;9.65;;;10.00;99.90;;;;;;6097672;23;20014;-88
2023/10/25 17:06:15;;;;;;;13.32;10.73;;;10.00;99.90;;;;;;6122730;23;20048;-88
2023/10/25 17:09:01;;;;;;;;;;;;;;;;;;;;;
2023/10/25 17:12:03;;;;;;;15.32;10.50;;;10.00;99.90;;;;;;6135528;23;20025;-88
2023/10/25 17:14:39;;;;;;;16.35;10.65;;;9.30;99.90;;;;;;6117888;23;20017;-89
2023/10/25 17:17:16;;;;;;;15.48;10.02;;;10.00;99.90;;;;;;6113078;23;20068;-89
2023/10/25 17:19:46;;;;;;;14.70;10.05;;;10.40;99.90;;;;;;6110892;23;20413;-90
2023/10/25 17:22:21;;;;;;;13.05;10.73;;;9.90;99.90;;;;;;6107537;23;20013;-90
2023/10/25 17:24:59;;;;;;;16.88;11.68;;;10.00;99.90;;;;;;6106106;23;20227;-90
2023/10/25 17:27:42;;;;;;;15.38;10.25;;;9.20;99.90;;;;;;6082932;23;20021;-91
2023/10/25 17:33:12;;;;;;;13.82;9.98;;;10.00;99.90;;;;;;6095876;23;20081;-90
2023/10/25 17:35:42;;;;;;;13.32;10.45;;;9.90;99.90;;;;;;6106357;23;20021;-91
2023/10/25 17:41:59;;;;;;;;;;;;;;;;;;;;;
2023/10/25 17:44:50;;;;;;;13.68;10.88;;;9.90;99.90;;;;;;6135897;23;20450;-90
2023/10/25 17:51:08;;;;;;;13.95;10.80;;;9.90;99.90;;;;;;6109255;23;20104;-90
2023/10/25 17:53:52;;;;;;;13.85;11.23;;;9.90;99.90;;;;;;6131342;23;20033;-91
2023/10/25 17:57:00;;;;;;;15.35;11.73;;;10.30;99.90;;;;;;6134729;23;20013;-90
2023/10/25 18:00:19;;;;;;;16.17;12.45;;;9.90;99.90;;;;;;6112174;23;20022;-91
2023/10/25 18:06:27;;;;;;;;;;;;;;;;;;;;;
2023/10/25 18:09:34;;;;;;;;;;;;;;;;;;;;;
2023/10/25 18:12:43;;;;;;;12.55;11.23;;;9.90;99.90;;;;;;6160440;23;20057;-92
2023/10/25 18:15:23;;;;;;;17.38;12.65;;;9.90;99.90;;;;;;6130542;23;20020;-92
2023/10/25 18:18:17;;;;;;;14.63;11.02;;;9.90;99.90;;;;;;6130645;23;20021;-92
2023/10/25 18:20:54;;;;;;;;;;;;;;;;;;;;;
2023/10/25 18:31:39;;;;;;;;;;;;;;;;;;;;;
2023/10/25 18:42:02;;;;;;;;;;;;;;;;;;;;;
2023/10/25 18:45:24;;;;;;;;;;;;;;;;;;;;;
2023/10/25 18:49:05;;;;;;;;;;;;;;;;;;;;;
2023/10/25 18:52:35;;;;;;;;;;;;;;;;;;;;;
2023/10/25 18:55:42;;;;;;;;;;;;;;;;;;;;;
2023/10/25 18:58:47;;;;;;;18.88;14.35;;;9.90;99.90;;;;;;6142638;23;20064;-93
2023/10/25 19:02:00;;;;;;;;;;;;;;;;;;;;;
2023/10/25 19:04:41;;;;;;;20.33;15.90;;;9.90;99.90;;;;;;6110329;23;20070;-90
2023/10/25 19:07:36;;;;;;;20.15;15.80;;;9.80;99.90;;;;;;6105102;23;20022;-90
2023/10/25 19:10:53;;;;;;;22.15;15.90;;;9.80;99.90;;;;;;6084412;23;20017;-92
2023/10/25 19:17:46;;;;;;;;;;;;;;;;;;;;;
2023/10/25 19:39:45;;;;;;;;;;;;;;;;;;;;;
2023/10/25 19:47:30;;;;;;;;;;;;;;;;;;;;;
2023/10/25 19:55:21;;;;;;;;;;;;;;;;;;;;;
2023/10/25 20:24:22;;;;;;;;;;;;;;;;;;;;;
2023/10/25 20:26:51;;;;;;;25.10;19.20;;;9.70;99.90;;;;;;5733575;24;20434;-90
2023/10/25 20:29:26;;;;;;;26.30;19.10;;;9.70;99.90;;;;;;6019083;23;20442;-90
2023/10/25 20:32:12;;;;;;;23.88;18.10;;;9.70;99.90;;;;;;6128791;23;20104;-91
2023/10/25 20:34:44;;;;;;;28.67;21.30;;;9.80;99.90;;;;;;6153934;23;20018;-89
2023/10/25 20:37:28;;;;;;;24.88;18.45;;;9.70;99.90;;;;;;6128545;23;20021;-91
2023/10/25 20:43:20;;;;;;;28.67;20.33;;;9.80;99.90;;;;;;6154275;23;20029;-95
2023/10/25 20:50:25;;;;;;;23.70;19.02;;;10.70;99.90;;;;;;6122439;23;20021;-93
2023/10/25 20:53:04;;;;;;;27.90;19.83;;;9.70;99.90;;;;;;6098385;23;20037;-92
2023/10/25 20:56:03;;;;;;;;;;;;;;;;;;;;;
2023/10/25 20:58:40;;;;;;;;;;;;;;;;;;;;;
2023/10/25 21:23:09;;;;;;;;;;;;;;;;;;;;;
2023/10/25 21:26:28;;;;;;;;;;;;;;;;;;;;;
2023/10/25 21:29:33;;;;;;;;;;;;;;;;;;;;;
2023/10/25 21:32:25;;;;;;;29.17;19.35;;;9.80;99.90;;;;;;6019162;23;20058;-93
2023/10/25 21:34:51;;;;;;;29.67;19.85;;;9.70;99.90;;;;;;5971479;23;20087;-90
2023/10/25 21:37:19;;;;;;;24.70;19.63;;;9.60;99.90;;;;;;6046754;23;20450;-91
2023/10/25 21:39:47;;;;;;;26.52;19.63;;;9.70;99.90;;;;;;6046558;23;20053;-89
2023/10/25 21:42:39;;;;;;;27.15;20.75;;;9.70;99.90;;;;;;6069671;23;20255;-91
2023/10/25 21:45:37;;;;;;;24.95;20.52;;;9.10;99.90;;;;;;6029168;23;20041;-89
2023/10/25 21:48:36;;;;;;;22.85;18.33;;;9.60;99.90;;;;;;6126449;23;20034;-94
2023/10/25 21:51:52;;;;;;;29.48;20.50;;;9.70;99.90;;;;;;6127712;23;20454;-93
2023/10/25 21:54:46;;;;;;;29.23;22.35;;;9.70;99.90;;;;;;6132696;23;20029;-92
2023/10/25 21:57:35;;;;;;;30.92;21.42;;;9.80;99.90;;;;;;6021653;23;20061;-94
2023/10/25 22:04:04;;;;;;;;;;;;;;;;;;;;;
2023/10/25 22:07:11;;;;;;;29.83;21.13;;;9.70;99.90;;;;;;6107781;23;20457;-93
2023/10/25 22:13:36;;;;;;;;;;;;;;;;;;;;;
2023/10/25 22:16:42;;;;;;;;;;;;;;;;;;;;;
2023/10/25 22:19:27;;;;;;;30.15;22.60;;;9.60;99.90;;;;;;6111884;23;20017;-93
2023/10/25 22:22:23;;;;;;;;;;;;;;;;;;;;;
2023/10/25 22:25:26;;;;;;;30.33;20.90;;;9.60;99.90;;;;;;6108912;23;20018;-93
2023/10/25 22:28:29;;;;;;;27.80;21.30;;;10.60;99.90;;;;;;6072220;23;20061;-93
2023/10/25 22:31:09;;;;;;;29.10;20.50;;;8.80;99.90;;;;;;6106969;23;20018;-93
2023/10/25 22:34:28;;;;;;;;;;;;;;;;;;;;;
2023/10/25 22:37:21;;;;;;;;;;;;;;;;;;;;;
2023/10/25 22:40:48;;;;;;;29.02;21.95;;;9.90;99.90;;;;;;6107533;23;20386;-93
2023/10/25 22:43:56;;;;;;;34.30;22.70;;;9.60;99.90;;;;;;6106822;23;20021;-93
2023/10/25 22:47:34;;;;;;;32.55;21.95;;;9.60;99.90;;;;;;6083262;23;20096;-94
2023/10/25 22:50:35;;;;;;;;;;;;;;;;;;;;;
2023/10/25 22:53:38;;;;;;;;;;;;;;;;;;;;;
2023/10/25 22:59:40;;;;;;;;;;;;;;;;;;;;;
2023/10/25 23:02:50;;;;;;;27.90;22.15;;;9.50;99.90;;;;;;6135096;23;20085;-93
2023/10/25 23:05:38;;;;;;;;;;;;;;;;;;;;;
2023/10/25 23:16:08;;;;;;;;;;;;;;;;;;;;;
2023/10/25 23:19:45;;;;;;;;;;;;;;;;;;;;;
2023/10/25 23:23:10;;;;;;;;;;;;;;;;;;;;;
2023/10/25 23:26:37;;;;;;;;;;;;;;;;;;;;;
2023/10/25 23:30:00;;;;;;;30.77;22.73;;;9.50;99.90;;;;;;6155562;23;20381;-95
2023/10/25 23:32:57;;;;;;;39.28;24.20;;;9.30;99.90;;;;;;6122573;23;20028;-94
2023/10/25 23:35:30;;;;;;;31.83;24.02;;;10.40;99.90;;;;;;6122829;23;20018;-95
2023/10/25 23:38:39;;;;;;;33.63;22.90;;;9.50;99.90;;;;;;6169736;23;20028;-94
2023/10/25 23:41:17;;;;;;;36.08;23.73;;;9.60;99.90;;;;;;6107638;23;20085;-94
2023/10/25 23:44:08;;;;;;;;;;;;;;;;;;;;;
2023/10/25 23:47:12;;;;;;;;;;;;;;;;;;;;;
2023/10/25 23:53:27;;;;;;;;;;;;;;;;;;;;;
